sensor_id;sensor_type;location;lat;lon;timestamp;pressure;altitude;pressure_sealevel;temperature
48854;BMP280;34673;52.808;17.856;2022-11-20T00:01:21;99973.38;;;-0.98
48854;BMP280;34673;52.808;17.856;2022-11-20T00:03:53;99976.81;;;-0.96
48854;BMP280;34673;52.808;17.856;2022-11-20T00:06:21;99976.91;;;-0.93
48854;BMP280;34673;52.808;17.856;2022-11-20T00:08:49;99980.38;;;-0.91
48854;BMP280;34673;52.808;17.856;2022-11-20T00:11:18;99980.38;;;-0.91
48854;BMP280;34673;52.808;17.856;2022-11-20T00:13:48;99986.28;;;-0.92
48854;BMP280;34673;52.808;17.856;2022-11-20T00:16:17;99971.94;;;-0.90
48854;BMP280;34673;52.808;17.856;2022-11-20T00:18:45;99971.78;;;-0.94
48854;BMP280;34673;52.808;17.856;2022-11-20T00:21:16;99976.13;;;-0.92
48854;BMP280;34673;52.808;17.856;2022-11-20T00:23:45;99980.38;;;-0.91
48854;BMP280;34673;52.808;17.856;2022-11-20T00:26:14;99986.28;;;-0.92
48854;BMP280;34673;52.808;17.856;2022-11-20T00:28:43;99985.44;;;-0.91
48854;BMP280;34673;52.808;17.856;2022-11-20T00:31:15;99984.50;;;-0.94
48854;BMP280;34673;52.808;17.856;2022-11-20T00:33:43;99993.03;;;-0.92
48854;BMP280;34673;52.808;17.856;2022-11-20T00:36:12;99990.63;;;-0.87
48854;BMP280;34673;52.808;17.856;2022-11-20T00:38:40;99987.19;;;-0.90
48854;BMP280;34673;52.808;17.856;2022-11-20T00:41:09;99983.81;;;-0.88
48854;BMP280;34673;52.808;17.856;2022-11-20T00:43:37;99979.66;;;-0.86
48854;BMP280;34673;52.808;17.856;2022-11-20T00:46:07;99974.59;;;-0.86
48854;BMP280;34673;52.808;17.856;2022-11-20T00:48:35;99978.75;;;-0.88
48854;BMP280;34673;52.808;17.856;2022-11-20T00:51:02;99976.91;;;-0.93
48854;BMP280;34673;52.808;17.856;2022-11-20T00:53:30;99982.81;;;-0.94
48854;BMP280;34673;52.808;17.856;2022-11-20T00:55:59;99987.81;;;-0.95
48854;BMP280;34673;52.808;17.856;2022-11-20T00:58:32;99984.41;;;-0.97
48854;BMP280;34673;52.808;17.856;2022-11-20T01:03:39;99975.00;;;-1.00
48854;BMP280;34673;52.808;17.856;2022-11-20T01:06:10;99986.88;;;-0.99
48854;BMP280;34673;52.808;17.856;2022-11-20T01:08:38;99981.78;;;-0.99
48854;BMP280;34673;52.808;17.856;2022-11-20T01:11:12;99985.25;;;-0.97
48854;BMP280;34673;52.808;17.856;2022-11-20T01:13:40;99981.88;;;-0.96
48854;BMP280;34673;52.808;17.856;2022-11-20T01:16:12;99983.63;;;-0.95
48854;BMP280;34673;52.808;17.856;2022-11-20T01:18:41;99981.88;;;-0.96
48854;BMP280;34673;52.808;17.856;2022-11-20T01:21:11;99983.53;;;-0.98
48854;BMP280;34673;52.808;17.856;2022-11-20T01:23:40;99981.00;;;-0.98
48854;BMP280;34673;52.808;17.856;2022-11-20T01:26:13;99985.16;;;-1.00
48854;BMP280;34673;52.808;17.856;2022-11-20T01:28:41;99976.53;;;-1.05
48854;BMP280;34673;52.808;17.856;2022-11-20T01:31:18;99985.94;;;-1.01
48854;BMP280;34673;52.808;17.856;2022-11-20T01:33:48;99971.44;;;-1.05
48854;BMP280;34673;52.808;17.856;2022-11-20T01:36:16;99974.91;;;-1.03
48854;BMP280;34673;52.808;17.856;2022-11-20T01:38:44;99974.78;;;-1.06
48854;BMP280;34673;52.808;17.856;2022-11-20T01:41:12;99978.34;;;-1.01
48854;BMP280;34673;52.808;17.856;2022-11-20T01:44:00;99976.53;;;-1.05
48854;BMP280;34673;52.808;17.856;2022-11-20T01:46:28;99968.00;;;-1.07
48854;BMP280;34673;52.808;17.856;2022-11-20T01:49:05;99970.63;;;-1.04
48854;BMP280;34673;52.808;17.856;2022-11-20T01:51:43;99952.56;;;-1.13
48854;BMP280;34673;52.808;17.856;2022-11-20T01:54:21;99968.09;;;-1.04
48854;BMP280;34673;52.808;17.856;2022-11-20T01:56:54;99973.16;;;-1.04
48854;BMP280;34673;52.808;17.856;2022-11-20T01:59:24;99964.63;;;-1.06
48854;BMP280;34673;52.808;17.856;2022-11-20T02:01:53;99963.00;;;-1.04
48854;BMP280;34673;52.808;17.856;2022-11-20T02:04:20;99961.22;;;-1.06
48854;BMP280;34673;52.808;17.856;2022-11-20T02:06:57;99968.19;;;-1.01
48854;BMP280;34673;52.808;17.856;2022-11-20T02:09:27;99968.19;;;-1.01
48854;BMP280;34673;52.808;17.856;2022-11-20T02:11:55;99966.47;;;-1.02
48854;BMP280;34673;52.808;17.856;2022-11-20T02:14:23;99959.56;;;-1.06
48854;BMP280;34673;52.808;17.856;2022-11-20T02:16:51;99947.59;;;-1.10
48854;BMP280;34673;52.808;17.856;2022-11-20T02:19:27;99954.59;;;-1.03
48854;BMP280;34673;52.808;17.856;2022-11-20T02:22:25;99956.31;;;-1.02
48854;BMP280;34673;52.808;17.856;2022-11-20T02:24:54;99963.09;;;-1.01
48854;BMP280;34673;52.808;17.856;2022-11-20T02:27:22;99951.16;;;-1.05
48854;BMP280;34673;52.808;17.856;2022-11-20T02:29:59;99956.41;;;-0.99
48854;BMP280;34673;52.808;17.856;2022-11-20T02:32:32;99961.47;;;-0.99
48854;BMP280;34673;52.808;17.856;2022-11-20T02:37:59;99950.56;;;-0.96
48854;BMP280;34673;52.808;17.856;2022-11-20T02:40:28;99953.94;;;-0.97
48854;BMP280;34673;52.808;17.856;2022-11-20T02:42:56;99962.25;;;-1.01
48854;BMP280;34673;52.808;17.856;2022-11-20T02:45:24;99958.03;;;-1.01
48854;BMP280;34673;52.808;17.856;2022-11-20T02:47:52;99959.78;;;-1.00
48854;BMP280;34673;52.808;17.856;2022-11-20T02:50:20;99955.56;;;-0.99
48854;BMP280;34673;52.808;17.856;2022-11-20T02:52:47;99952.94;;;-1.01
48854;BMP280;34673;52.808;17.856;2022-11-20T02:55:14;99963.88;;;-1.03
48854;BMP280;34673;52.808;17.856;2022-11-20T02:57:42;99961.38;;;-1.02
48854;BMP280;34673;52.808;17.856;2022-11-20T03:00:09;99954.47;;;-1.06
48854;BMP280;34673;52.808;17.856;2022-11-20T03:02:36;99968.09;;;-1.04
48854;BMP280;34673;52.808;17.856;2022-11-20T03:05:04;99958.66;;;-1.08
48854;BMP280;34673;52.808;17.856;2022-11-20T03:07:31;99962.81;;;-1.10
48854;BMP280;34673;52.808;17.856;2022-11-20T03:09:58;99945.75;;;-1.14
48854;BMP280;34673;52.808;17.856;2022-11-20T03:12:25;99957.84;;;-1.07
48854;BMP280;34673;52.808;17.856;2022-11-20T03:14:52;99948.53;;;-1.06
48854;BMP280;34673;52.808;17.856;2022-11-20T03:17:20;99946.84;;;-1.06
48854;BMP280;34673;52.808;17.856;2022-11-20T03:19:47;99958.16;;;-0.98
48854;BMP280;34673;52.808;17.856;2022-11-20T03:22:14;99951.34;;;-0.99
48854;BMP280;34673;52.808;17.856;2022-11-20T03:24:41;99949.72;;;-0.97
48854;BMP280;34673;52.808;17.856;2022-11-20T03:27:08;99951.41;;;-0.96
48854;BMP280;34673;52.808;17.856;2022-11-20T03:29:35;99953.94;;;-0.97
48854;BMP280;34673;52.808;17.856;2022-11-20T03:32:03;99958.16;;;-0.98
48854;BMP280;34673;52.808;17.856;2022-11-20T03:34:30;99939.25;;;-1.06
48854;BMP280;34673;52.808;17.856;2022-11-20T03:36:57;99953.88;;;-0.99
48854;BMP280;34673;52.808;17.856;2022-11-20T03:39:24;99961.47;;;-0.99
48854;BMP280;34673;52.808;17.856;2022-11-20T03:41:51;99958.03;;;-1.01
48854;BMP280;34673;52.808;17.856;2022-11-20T03:44:21;99957.22;;;-1.00
48854;BMP280;34673;52.808;17.856;2022-11-20T03:46:48;99954.59;;;-1.03
48854;BMP280;34673;52.808;17.856;2022-11-20T03:49:15;99954.59;;;-1.03
48854;BMP280;34673;52.808;17.856;2022-11-20T03:51:43;99949.31;;;-1.09
48854;BMP280;34673;52.808;17.856;2022-11-20T03:54:10;99949.97;;;-1.15
48854;BMP280;34673;52.808;17.856;2022-11-20T03:56:38;99956.91;;;-1.09
48854;BMP280;34673;52.808;17.856;2022-11-20T03:59:06;99959.47;;;-1.09
48854;BMP280;34673;52.808;17.856;2022-11-20T04:01:35;99964.63;;;-1.06
48854;BMP280;34673;52.808;17.856;2022-11-20T04:04:04;99966.38;;;-1.05
48854;BMP280;34673;52.808;17.856;2022-11-20T04:06:36;99944.22;;;-1.09
48854;BMP280;34673;52.808;17.856;2022-11-20T04:09:05;99954.59;;;-1.03
48854;BMP280;34673;52.808;17.856;2022-11-20T04:11:34;99963.88;;;-1.03
48854;BMP280;34673;52.808;17.856;2022-11-20T04:14:04;99954.59;;;-1.03
48854;BMP280;34673;52.808;17.856;2022-11-20T04:16:34;99957.94;;;-1.04
48854;BMP280;34673;52.808;17.856;2022-11-20T04:19:04;99956.31;;;-1.02
48854;BMP280;34673;52.808;17.856;2022-11-20T04:21:32;99933.38;;;-1.05
48854;BMP280;34673;52.808;17.856;2022-11-20T04:23:59;99950.53;;;-0.98
48854;BMP280;34673;52.808;17.856;2022-11-20T04:26:29;99948.00;;;-0.98
48854;BMP280;34673;52.808;17.856;2022-11-20T04:28:57;99942.91;;;-0.98
48854;BMP280;34673;52.808;17.856;2022-11-20T04:31:29;99939.56;;;-0.97
48854;BMP280;34673;52.808;17.856;2022-11-20T04:34:05;99936.16;;;-0.97
48854;BMP280;34673;52.808;17.856;2022-11-20T04:36:33;99935.31;;;-0.98
48854;BMP280;34673;52.808;17.856;2022-11-20T04:39:03;99936.28;;;-0.93
48854;BMP280;34673;52.808;17.856;2022-11-20T04:41:34;99936.19;;;-0.96
48854;BMP280;34673;52.808;17.856;2022-11-20T04:44:03;99937.84;;;-0.98
48854;BMP280;34673;52.808;17.856;2022-11-20T04:46:39;99935.31;;;-0.98
48854;BMP280;34673;52.808;17.856;2022-11-20T04:49:08;99932.75;;;-0.98
48854;BMP280;34673;52.808;17.856;2022-11-20T04:51:35;99936.19;;;-0.96
48854;BMP280;34673;52.808;17.856;2022-11-20T04:54:02;99930.25;;;-0.96
48854;BMP280;34673;52.808;17.856;2022-11-20T04:56:29;99925.84;;;-1.02
48854;BMP280;34673;52.808;17.856;2022-11-20T04:59:00;99920.88;;;-0.99
48854;BMP280;34673;52.808;17.856;2022-11-20T05:01:27;99933.63;;;-0.97
48854;BMP280;34673;52.808;17.856;2022-11-20T05:03:55;99926.97;;;-0.94
48854;BMP280;34673;52.808;17.856;2022-11-20T05:06:22;99913.31;;;-0.97
48854;BMP280;34673;52.808;17.856;2022-11-20T05:08:49;99915.00;;;-0.98
48854;BMP280;34673;52.808;17.856;2022-11-20T05:11:19;99921.78;;;-0.97
48854;BMP280;34673;52.808;17.856;2022-11-20T05:13:47;99914.16;;;-0.97
48854;BMP280;34673;52.808;17.856;2022-11-20T05:16:17;99903.84;;;-1.03
48854;BMP280;34673;52.808;17.856;2022-11-20T05:18:44;99914.84;;;-1.02
48854;BMP280;34673;52.808;17.856;2022-11-20T05:21:12;99923.41;;;-0.99
48854;BMP280;34673;52.808;17.856;2022-11-20T05:23:40;99925.16;;;-0.98
48854;BMP280;34673;52.808;17.856;2022-11-20T05:26:15;99929.31;;;-1.00
48854;BMP280;34673;52.808;17.856;2022-11-20T05:28:42;99944.44;;;-1.03
48854;BMP280;34673;52.808;17.856;2022-11-20T05:31:12;99933.31;;;-1.06
48854;BMP280;34673;52.808;17.856;2022-11-20T05:33:41;99935.09;;;-1.04
48854;BMP280;34673;52.808;17.856;2022-11-20T05:36:09;99929.31;;;-1.00
48854;BMP280;34673;52.808;17.856;2022-11-20T05:38:36;99929.22;;;-1.03
48854;BMP280;34673;52.808;17.856;2022-11-20T05:41:30;99931.03;;;-0.99
48854;BMP280;34673;52.808;17.856;2022-11-20T05:43:58;99939.47;;;-1.00
48854;BMP280;34673;52.808;17.856;2022-11-20T05:46:25;99931.75;;;-1.03
48854;BMP280;34673;52.808;17.856;2022-11-20T05:48:56;99930.94;;;-1.02
48854;BMP280;34673;52.808;17.856;2022-11-20T05:51:24;99927.56;;;-1.01
48854;BMP280;34673;52.808;17.856;2022-11-20T05:53:51;99933.53;;;-1.00
48854;BMP280;34673;52.808;17.856;2022-11-20T05:56:20;99930.88;;;-1.03
48854;BMP280;34673;52.808;17.856;2022-11-20T05:58:49;99924.94;;;-1.04
48854;BMP280;34673;52.808;17.856;2022-11-20T06:01:19;99924.13;;;-1.03
48854;BMP280;34673;52.808;17.856;2022-11-20T06:03:47;99924.13;;;-1.03
48854;BMP280;34673;52.808;17.856;2022-11-20T06:06:16;99930.94;;;-1.02
48854;BMP280;34673;52.808;17.856;2022-11-20T06:08:44;99933.41;;;-1.03
48854;BMP280;34673;52.808;17.856;2022-11-20T06:11:12;99923.94;;;-1.09
48854;BMP280;34673;52.808;17.856;2022-11-20T06:13:41;99931.63;;;-1.06
48854;BMP280;34673;52.808;17.856;2022-11-20T06:16:09;99926.53;;;-1.07
48854;BMP280;34673;52.808;17.856;2022-11-20T06:18:37;99922.31;;;-1.07
48854;BMP280;34673;52.808;17.856;2022-11-20T06:21:07;99923.22;;;-1.05
48854;BMP280;34673;52.808;17.856;2022-11-20T06:23:35;99927.47;;;-1.04
48854;BMP280;34673;52.808;17.856;2022-11-20T06:26:10;99920.69;;;-1.05
48854;BMP280;34673;52.808;17.856;2022-11-20T06:28:38;99921.38;;;-1.09
48854;BMP280;34673;52.808;17.856;2022-11-20T06:31:05;99919.06;;;-1.03
48854;BMP280;34673;52.808;17.856;2022-11-20T06:33:33;99916.47;;;-1.04
48854;BMP280;34673;52.808;17.856;2022-11-20T06:36:01;99914.84;;;-1.02
48854;BMP280;34673;52.808;17.856;2022-11-20T06:38:36;99924.22;;;-1.00
48854;BMP280;34673;52.808;17.856;2022-11-20T06:41:04;99920.88;;;-0.99
48854;BMP280;34673;52.808;17.856;2022-11-20T06:43:32;99920.88;;;-0.99
48854;BMP280;34673;52.808;17.856;2022-11-20T06:45:59;99913.88;;;-1.06
48854;BMP280;34673;52.808;17.856;2022-11-20T06:48:27;99923.41;;;-0.99
48854;BMP280;34673;52.808;17.856;2022-11-20T06:50:55;99925.19;;;-0.96
48854;BMP280;34673;52.808;17.856;2022-11-20T06:53:23;99927.78;;;-0.95
48854;BMP280;34673;52.808;17.856;2022-11-20T06:55:51;99928.66;;;-0.93
48854;BMP280;34673;52.808;17.856;2022-11-20T06:58:19;99907.25;;;-1.01
48854;BMP280;34673;52.808;17.856;2022-11-20T07:00:46;99924.50;;;-0.91
48854;BMP280;34673;52.808;17.856;2022-11-20T07:03:13;99915.22;;;-0.90
48854;BMP280;34673;52.808;17.856;2022-11-20T07:05:40;99916.97;;;-0.87
48854;BMP280;34673;52.808;17.856;2022-11-20T07:08:09;99919.44;;;-0.91
48854;BMP280;34673;52.808;17.856;2022-11-20T07:10:36;99919.53;;;-0.87
48854;BMP280;34673;52.808;17.856;2022-11-20T07:13:03;99926.25;;;-0.90
48854;BMP280;34673;52.808;17.856;2022-11-20T07:15:30;99920.38;;;-0.87
48854;BMP280;34673;52.808;17.856;2022-11-20T07:18:00;99919.53;;;-0.87
48854;BMP280;34673;52.808;17.856;2022-11-20T07:20:28;99912.72;;;-0.88
48854;BMP280;34673;52.808;17.856;2022-11-20T07:22:56;99904.44;;;-0.83
48854;BMP280;34673;52.808;17.856;2022-11-20T07:25:25;99909.69;;;-0.77
48854;BMP280;34673;52.808;17.856;2022-11-20T07:27:52;99904.75;;;-0.72
48854;BMP280;34673;52.808;17.856;2022-11-20T07:30:19;99894.84;;;-0.63
48854;BMP280;34673;52.808;17.856;2022-11-20T07:32:52;99902.72;;;-0.55
48854;BMP280;34673;52.808;17.856;2022-11-20T07:35:20;99891.84;;;-0.50
48854;BMP280;34673;52.808;17.856;2022-11-20T07:37:47;99893.69;;;-0.46
48854;BMP280;34673;52.808;17.856;2022-11-20T07:40:16;99897.09;;;-0.43
48854;BMP280;34673;52.808;17.856;2022-11-20T07:42:54;99899.63;;;-0.45
48854;BMP280;34673;52.808;17.856;2022-11-20T07:45:23;99889.38;;;-0.48
48854;BMP280;34673;52.808;17.856;2022-11-20T07:47:51;99896.94;;;-0.50
48854;BMP280;34673;52.808;17.856;2022-11-20T07:50:19;99896.94;;;-0.50
48854;BMP280;34673;52.808;17.856;2022-11-20T07:52:47;99893.53;;;-0.50
48854;BMP280;34673;52.808;17.856;2022-11-20T07:55:14;99890.31;;;-0.45
48854;BMP280;34673;52.808;17.856;2022-11-20T07:57:42;99902.19;;;-0.43
48854;BMP280;34673;52.808;17.856;2022-11-20T08:00:10;99895.41;;;-0.45
48854;BMP280;34673;52.808;17.856;2022-11-20T08:02:39;99893.03;;;-0.38
48854;BMP280;34673;52.808;17.856;2022-11-20T08:05:10;99888.84;;;-0.36
48854;BMP280;34673;52.808;17.856;2022-11-20T08:07:43;99882.91;;;-0.37
48854;BMP280;34673;52.808;17.856;2022-11-20T08:10:13;99889.13;;;-0.27
48854;BMP280;34673;52.808;17.856;2022-11-20T08:12:49;99889.13;;;-0.27
48854;BMP280;34673;52.808;17.856;2022-11-20T08:15:36;99889.22;;;-0.24
48854;BMP280;34673;52.808;17.856;2022-11-20T08:18:09;99888.31;;;-0.25
48854;BMP280;34673;52.808;17.856;2022-11-20T08:21:01;99887.56;;;-0.22
48854;BMP280;34673;52.808;17.856;2022-11-20T08:23:28;99881.78;;;-0.16
48854;BMP280;34673;52.808;17.856;2022-11-20T08:25:56;99879.44;;;-0.09
48854;BMP280;34673;52.808;17.856;2022-11-20T08:28:23;99882.91;;;-0.07
48854;BMP280;34673;52.808;17.856;2022-11-20T08:30:50;99876.19;;;-0.05
48854;BMP280;34673;52.808;17.856;2022-11-20T08:33:17;99874.38;;;-0.09
48854;BMP280;34673;52.808;17.856;2022-11-20T08:35:45;99879.63;;;-0.03
48854;BMP280;34673;52.808;17.856;2022-11-20T08:38:12;99871.81;;;-0.09
48854;BMP280;34673;52.808;17.856;2022-11-20T08:40:40;99876.09;;;-0.08
48854;BMP280;34673;52.808;17.856;2022-11-20T08:43:07;99872.72;;;-0.07
48854;BMP280;34673;52.808;17.856;2022-11-20T08:45:34;99876.19;;;-0.05
48854;BMP280;34673;52.808;17.856;2022-11-20T08:48:02;99866.09;;;-0.02
48854;BMP280;34673;52.808;17.856;2022-11-20T08:50:31;99864.47;;;0.01
48854;BMP280;34673;52.808;17.856;2022-11-20T08:53:03;99867.69;;;-0.05
48854;BMP280;34673;52.808;17.856;2022-11-20T08:55:31;99867.66;;;-0.07
48854;BMP280;34673;52.808;17.856;2022-11-20T08:58:03;99857.31;;;-0.13
48854;BMP280;34673;52.808;17.856;2022-11-20T09:00:30;99857.47;;;-0.07
48854;BMP280;34673;52.808;17.856;2022-11-20T09:02:59;99861.09;;;0.02
48854;BMP280;34673;52.808;17.856;2022-11-20T09:05:28;99866.25;;;0.05
48854;BMP280;34673;52.808;17.856;2022-11-20T09:07:56;99851.84;;;0.05
48854;BMP280;34673;52.808;17.856;2022-11-20T09:10:24;99861.50;;;0.17
48854;BMP280;34673;52.808;17.856;2022-11-20T09:12:52;99864.81;;;0.14
48854;BMP280;34673;52.808;17.856;2022-11-20T09:15:21;99867.38;;;0.16
48854;BMP280;34673;52.808;17.856;2022-11-20T09:17:55;99857.97;;;0.12
48854;BMP280;34673;52.808;17.856;2022-11-20T09:20:23;99845.91;;;0.05
48854;BMP280;34673;52.808;17.856;2022-11-20T09:22:50;99855.44;;;0.12
48854;BMP280;34673;52.808;17.856;2022-11-20T09:25:18;99843.28;;;0.02
48854;BMP280;34673;52.808;17.856;2022-11-20T09:27:45;99859.59;;;0.10
48854;BMP280;34673;52.808;17.856;2022-11-20T09:30:14;99852.81;;;0.09
48854;BMP280;34673;52.808;17.856;2022-11-20T09:32:42;99854.44;;;0.07
48854;BMP280;34673;52.808;17.856;2022-11-20T09:35:10;99843.41;;;0.06
48854;BMP280;34673;52.808;17.856;2022-11-20T09:37:37;99843.63;;;0.15
48854;BMP280;34673;52.808;17.856;2022-11-20T09:40:06;99837.91;;;0.24
48854;BMP280;34673;52.808;17.856;2022-11-20T09:46:06;99840.13;;;0.43
48854;BMP280;34673;52.808;17.856;2022-11-20T09:49:14;99841.97;;;0.51
48854;BMP280;34673;52.808;17.856;2022-11-20T09:51:58;99839.50;;;0.54
48854;BMP280;34673;52.808;17.856;2022-11-20T09:54:38;99830.75;;;0.42
48854;BMP280;34673;52.808;17.856;2022-11-20T09:57:17;99839.22;;;0.43
48854;BMP280;34673;52.808;17.856;2022-11-20T09:59:50;99831.66;;;0.44
48854;BMP280;34673;52.808;17.856;2022-11-20T10:05:21;99820.81;;;0.52
48854;BMP280;34673;52.808;17.856;2022-11-20T10:10:34;99821.59;;;0.51
48854;BMP280;34673;52.808;17.856;2022-11-20T10:13:13;99815.09;;;0.62
48854;BMP280;34673;52.808;17.856;2022-11-20T10:24:44;99815.69;;;0.89
48854;BMP280;34673;52.808;17.856;2022-11-20T10:30:13;99820.94;;;0.96
48854;BMP280;34673;52.808;17.856;2022-11-20T10:32:58;99807.25;;;0.91
48854;BMP280;34673;52.808;17.856;2022-11-20T10:38:51;99819.50;;;1.07
48854;BMP280;34673;52.808;17.856;2022-11-20T10:41:28;99814.41;;;1.07
48854;BMP280;34673;52.808;17.856;2022-11-20T10:44:17;99807.84;;;1.18
48854;BMP280;34673;52.808;17.856;2022-11-20T10:47:16;99816.56;;;1.29
48854;BMP280;34673;52.808;17.856;2022-11-20T10:49:49;99813.22;;;1.30
48854;BMP280;34673;52.808;17.856;2022-11-20T10:58:03;99807.25;;;1.31
48854;BMP280;34673;52.808;17.856;2022-11-20T11:00:34;99808.00;;;1.27
48854;BMP280;34673;52.808;17.856;2022-11-20T11:03:02;99796.97;;;1.27
48854;BMP280;34673;52.808;17.856;2022-11-20T11:05:40;99804.72;;;1.31
48854;BMP280;34673;52.808;17.856;2022-11-20T11:08:17;99803.69;;;1.23
48854;BMP280;34673;52.808;17.856;2022-11-20T11:10:55;99801.09;;;1.20
48854;BMP280;34673;52.808;17.856;2022-11-20T11:13:26;99805.25;;;1.17
48854;BMP280;34673;52.808;17.856;2022-11-20T11:15:54;99801.03;;;1.17
48854;BMP280;34673;52.808;17.856;2022-11-20T11:18:32;99790.78;;;1.14
48854;BMP280;34673;52.808;17.856;2022-11-20T11:21:02;99795.94;;;1.17
48854;BMP280;34673;52.808;17.856;2022-11-20T11:23:36;99801.78;;;1.13
48854;BMP280;34673;52.808;17.856;2022-11-20T11:26:07;99799.28;;;1.16
48854;BMP280;34673;52.808;17.856;2022-11-20T11:28:59;99802.50;;;1.06
48854;BMP280;34673;52.808;17.856;2022-11-20T11:31:28;99788.94;;;1.07
48854;BMP280;34673;52.808;17.856;2022-11-20T11:34:07;99790.50;;;1.02
48854;BMP280;34673;52.808;17.856;2022-11-20T11:36:35;99787.91;;;1.00
48854;BMP280;34673;52.808;17.856;2022-11-20T11:39:04;99788.88;;;1.04
48854;BMP280;34673;52.808;17.856;2022-11-20T11:41:33;99789.00;;;1.10
48854;BMP280;34673;52.808;17.856;2022-11-20T11:44:47;99784.91;;;1.18
48854;BMP280;34673;52.808;17.856;2022-11-20T11:47:30;99789.16;;;1.19
48854;BMP280;34673;52.808;17.856;2022-11-20T11:50:24;99790.13;;;1.24
48854;BMP280;34673;52.808;17.856;2022-11-20T11:53:18;99784.28;;;1.28
48854;BMP280;34673;52.808;17.856;2022-11-20T11:56:12;99783.34;;;1.25
48854;BMP280;34673;52.808;17.856;2022-11-20T11:58:47;99784.22;;;1.25
48854;BMP280;34673;52.808;17.856;2022-11-20T12:01:29;99783.97;;;1.13
48854;BMP280;34673;52.808;17.856;2022-11-20T12:04:04;99785.59;;;1.11
48854;BMP280;34673;52.808;17.856;2022-11-20T12:06:36;99782.88;;;1.02
48854;BMP280;34673;52.808;17.856;2022-11-20T12:09:09;99779.41;;;0.98
48854;BMP280;34673;52.808;17.856;2022-11-20T12:11:51;99773.53;;;1.01
48854;BMP280;34673;52.808;17.856;2022-11-20T12:14:35;99776.13;;;1.04
48854;BMP280;34673;52.808;17.856;2022-11-20T12:17:03;99767.53;;;0.99
48854;BMP280;34673;52.808;17.856;2022-11-20T12:19:33;99775.22;;;1.02
48854;BMP280;34673;52.808;17.856;2022-11-20T12:25:10;99765.97;;;1.05
48854;BMP280;34673;52.808;17.856;2022-11-20T12:30:23;99763.53;;;1.10
48854;BMP280;34673;52.808;17.856;2022-11-20T12:33:25;99760.06;;;1.08
48854;BMP280;34673;52.808;17.856;2022-11-20T12:36:04;99750.63;;;1.02
48854;BMP280;34673;52.808;17.856;2022-11-20T12:54:01;99738.00;;;1.07
48854;BMP280;34673;52.808;17.856;2022-11-20T12:59:23;99742.00;;;0.96
48854;BMP280;34673;52.808;17.856;2022-11-20T13:07:30;99732.63;;;0.95
48854;BMP280;34673;52.808;17.856;2022-11-20T13:09:58;99722.28;;;0.85
48854;BMP280;34673;52.808;17.856;2022-11-20T13:12:46;99721.44;;;0.86
48854;BMP280;34673;52.808;17.856;2022-11-20T13:15:31;99725.66;;;0.84
48854;BMP280;34673;52.808;17.856;2022-11-20T13:18:03;99726.47;;;0.83
48854;BMP280;34673;52.808;17.856;2022-11-20T13:20:33;99722.09;;;0.76
48854;BMP280;34673;52.808;17.856;2022-11-20T13:23:01;99720.16;;;0.66
48854;BMP280;34673;52.808;17.856;2022-11-20T13:25:46;99718.44;;;0.65
48854;BMP280;34673;52.808;17.856;2022-11-20T13:30:52;99706.47;;;0.61
48854;BMP280;34673;52.808;17.856;2022-11-20T13:35:57;99703.88;;;0.59
48854;BMP280;34673;52.808;17.856;2022-11-20T13:38:25;99704.69;;;0.57
48854;BMP280;34673;52.808;17.856;2022-11-20T13:41:00;99707.22;;;0.57
48854;BMP280;34673;52.808;17.856;2022-11-20T13:43:48;99699.53;;;0.54
48854;BMP280;34673;52.808;17.856;2022-11-20T13:46:15;99698.56;;;0.49
48854;BMP280;34673;52.808;17.856;2022-11-20T13:48:44;99699.47;;;0.51
48854;BMP280;34673;52.808;17.856;2022-11-20T13:57:40;99695.09;;;0.43
48854;BMP280;34673;52.808;17.856;2022-11-20T14:00:19;99688.25;;;0.41
48854;BMP280;34673;52.808;17.856;2022-11-20T14:05:24;99698.44;;;0.42
48854;BMP280;34673;52.808;17.856;2022-11-20T14:07:52;99694.22;;;0.43
48854;BMP280;34673;52.808;17.856;2022-11-20T14:10:22;99695.09;;;0.43
48854;BMP280;34673;52.808;17.856;2022-11-20T14:12:57;99695.91;;;0.42
48854;BMP280;34673;52.808;17.856;2022-11-20T14:15:29;99699.22;;;0.38
48854;BMP280;34673;52.808;17.856;2022-11-20T14:17:57;99691.41;;;0.32
48854;BMP280;34673;52.808;17.856;2022-11-20T14:20:27;99698.25;;;0.33
48854;BMP280;34673;52.808;17.856;2022-11-20T14:22:55;99699.88;;;0.31
48854;BMP280;34673;52.808;17.856;2022-11-20T14:25:24;99699.06;;;0.32
48854;BMP280;34673;52.808;17.856;2022-11-20T14:27:59;99693.88;;;0.28
48854;BMP280;34673;52.808;17.856;2022-11-20T14:30:30;99699.69;;;0.22
48854;BMP280;34673;52.808;17.856;2022-11-20T14:33:04;99690.25;;;0.18
48854;BMP280;34673;52.808;17.856;2022-11-20T14:35:38;99688.38;;;0.11
48854;BMP280;34673;52.808;17.856;2022-11-20T14:38:11;99696.91;;;0.13
48854;BMP280;34673;52.808;17.856;2022-11-20T14:40:39;99679.06;;;0.10
48854;BMP280;34673;52.808;17.856;2022-11-20T14:43:24;99690.13;;;0.12
48854;BMP280;34673;52.808;17.856;2022-11-20T14:45:56;99687.50;;;0.09
48854;BMP280;34673;52.808;17.856;2022-11-20T14:48:33;99678.22;;;0.11
48854;BMP280;34673;52.808;17.856;2022-11-20T14:51:04;99679.88;;;0.09
48854;BMP280;34673;52.808;17.856;2022-11-20T14:53:31;99680.69;;;0.06
48854;BMP280;34673;52.808;17.856;2022-11-20T14:56:00;99683.22;;;0.08
48854;BMP280;34673;52.808;17.856;2022-11-20T14:58:32;99684.06;;;0.07
48854;BMP280;34673;52.808;17.856;2022-11-20T15:01:07;99676.38;;;0.04
48854;BMP280;34673;52.808;17.856;2022-11-20T15:03:39;99679.72;;;0.03
48854;BMP280;34673;52.808;17.856;2022-11-20T15:06:10;99672.09;;;0.03
48854;BMP280;34673;52.808;17.856;2022-11-20T15:08:38;99669.56;;;0.03
48854;BMP280;34673;52.808;17.856;2022-11-20T15:11:18;99663.47;;;-0.04
48854;BMP280;34673;52.808;17.856;2022-11-20T15:13:46;99664.41;;;-0.01
48854;BMP280;34673;52.808;17.856;2022-11-20T15:16:18;99658.41;;;-0.04
48854;BMP280;34673;52.808;17.856;2022-11-20T15:18:46;99666.94;;;-0.02
48854;BMP280;34673;52.808;17.856;2022-11-20T15:21:16;99666.13;;;0.01
48854;BMP280;34673;52.808;17.856;2022-11-20T15:23:43;99670.28;;;-0.03
48854;BMP280;34673;52.808;17.856;2022-11-20T15:26:12;99666.94;;;-0.02
48854;BMP280;34673;52.808;17.856;2022-11-20T15:28:47;99660.88;;;-0.06
48854;BMP280;34673;52.808;17.856;2022-11-20T15:31:21;99658.31;;;-0.07
48854;BMP280;34673;52.808;17.856;2022-11-20T15:33:49;99642.16;;;-0.11
48854;BMP280;34673;52.808;17.856;2022-11-20T15:36:17;99655.00;;;-0.03
48854;BMP280;34673;52.808;17.856;2022-11-20T15:38:44;99655.84;;;-0.04
48854;BMP280;34673;52.808;17.856;2022-11-20T15:41:11;99648.19;;;-0.06
48854;BMP280;34673;52.808;17.856;2022-11-20T15:43:39;99655.81;;;-0.06